< < Back
Terminal Aerodrome Forecast


Current Version              Previous Versions:   1  2  3  4  5  6  7  8  9  

Terminal Aerodrome Forecast

545
FTUS42 KFFC 302335
TAFFTY
TAF
KFTY 302335Z 3100/3124 08007KT P6SM SCT050
     FM310600 08005KT P6SM SCT120
     FM311400 06009KT P6SM FEW040 SCT120
     FM311700 07009KT P6SM SCT050=



Latest METAR

550
SAUS70 KWBC 312100 RRH
MTRFTY
METAR KFTY 312053Z 00000KT 10SM CLR 33/17 A2990 RMK AO2 SLP113 T03280172
56021


USA.gov is the U.S. government's official web portal to all federal, state and local government web resources and services.